createdAt,value
2019-02-09T00:02:11.929Z,8.69
2019-02-09T00:04:42.540Z,8.61
2019-02-09T00:07:13.328Z,8.52
2019-02-09T00:09:44.348Z,8.45
2019-02-09T00:12:15.347Z,8.41
2019-02-09T00:14:46.380Z,8.40
2019-02-09T00:17:17.317Z,8.36
2019-02-09T00:19:49.080Z,8.37
2019-02-09T00:22:19.787Z,8.33
2019-02-09T00:24:50.719Z,8.31
2019-02-09T00:27:21.381Z,8.32
2019-02-09T00:29:52.061Z,8.29
2019-02-09T00:32:23.120Z,8.30
2019-02-09T00:34:54.128Z,8.28
2019-02-09T00:37:24.816Z,8.32
2019-02-09T00:39:55.883Z,8.29
2019-02-09T00:42:26.629Z,8.29
2019-02-09T00:44:57.480Z,8.33
2019-02-09T00:47:28.065Z,8.31
2019-02-09T00:49:58.687Z,8.28
2019-02-09T00:52:29.679Z,8.38
2019-02-09T00:55:00.346Z,8.35
2019-02-09T00:57:31.222Z,8.35
2019-02-09T01:00:01.911Z,8.35
2019-02-09T01:02:32.628Z,8.31
2019-02-09T01:05:03.301Z,8.29
2019-02-09T01:07:34.070Z,8.28
2019-02-09T01:10:07.079Z,8.30
2019-02-09T01:12:37.793Z,8.27
2019-02-09T01:15:12.742Z,8.20
2019-02-09T01:17:43.488Z,8.17
2019-02-09T01:20:21.248Z,8.09
2019-02-09T01:22:52.371Z,8.07
2019-02-09T01:25:23.287Z,8.05
2019-02-09T01:27:54.074Z,8.05
2019-02-09T01:30:26.967Z,7.99
2019-02-09T01:32:57.948Z,8.00
2019-02-09T01:35:28.770Z,8.00
2019-02-09T01:37:59.703Z,8.00
2019-02-09T01:40:30.943Z,8.03
2019-02-09T01:43:01.913Z,7.96
2019-02-09T01:45:33.149Z,7.94
2019-02-09T01:48:04.737Z,7.96
2019-02-09T01:50:35.748Z,7.96
2019-02-09T01:53:06.869Z,8.00
2019-02-09T01:55:37.737Z,7.93
2019-02-09T01:58:08.791Z,8.03
2019-02-09T02:00:39.991Z,7.99
2019-02-09T02:03:10.848Z,7.95
2019-02-09T02:05:41.762Z,7.97
2019-02-09T02:08:14.954Z,7.97
2019-02-09T02:10:46.197Z,7.97
2019-02-09T02:13:16.723Z,7.96
2019-02-09T02:15:47.330Z,7.96
2019-02-09T02:18:18.125Z,7.89
2019-02-09T02:20:48.975Z,7.87
2019-02-09T02:23:19.750Z,7.88
2019-02-09T02:25:50.333Z,7.91
2019-02-09T02:28:20.930Z,7.90
2019-02-09T02:30:51.709Z,7.99
2019-02-09T02:33:22.757Z,8.04
2019-02-09T02:35:53.316Z,8.12
2019-02-09T02:38:24.308Z,8.18
2019-02-09T02:40:54.885Z,8.24
2019-02-09T02:43:25.456Z,8.27
2019-02-09T02:45:56.176Z,8.46
2019-02-09T02:48:26.866Z,8.46
2019-02-09T02:50:57.433Z,8.60
2019-02-09T02:53:28.095Z,8.59
2019-02-09T02:55:58.630Z,8.63
2019-02-09T02:58:29.254Z,8.59
2019-02-09T03:01:00.119Z,8.63
2019-02-09T03:03:30.863Z,8.67
2019-02-09T03:06:01.685Z,8.63
2019-02-09T03:08:32.375Z,8.70
2019-02-09T03:11:03.311Z,8.70
2019-02-09T03:13:33.888Z,8.70
2019-02-09T03:16:04.656Z,8.69
2019-02-09T03:18:35.442Z,8.62
2019-02-09T03:21:06.019Z,8.60
2019-02-09T03:23:36.550Z,8.61
2019-02-09T03:26:07.251Z,8.76
2019-02-09T03:28:38.241Z,8.72
2019-02-09T03:31:08.976Z,8.78
2019-02-09T03:33:39.532Z,8.75
2019-02-09T03:36:10.082Z,8.77
2019-02-09T03:38:40.963Z,8.79
2019-02-09T03:41:11.482Z,8.78
2019-02-09T03:43:42.008Z,8.75
2019-02-09T03:46:12.809Z,8.82
2019-02-09T03:48:43.353Z,8.78
2019-02-09T03:51:13.857Z,8.71
2019-02-09T03:53:44.420Z,8.67
2019-02-09T03:56:15.223Z,8.73
2019-02-09T03:58:45.890Z,8.75
2019-02-09T04:01:16.503Z,8.76
2019-02-09T04:03:47.373Z,8.76
2019-02-09T04:06:18.171Z,8.71
2019-02-09T04:08:49.071Z,8.78
2019-02-09T04:11:19.619Z,8.74
2019-02-09T04:13:50.156Z,8.76
2019-02-09T04:16:21.089Z,8.78
2019-02-09T04:18:51.690Z,8.81
2019-02-09T04:21:22.266Z,8.80
2019-02-09T04:23:52.918Z,8.86
2019-02-09T04:26:23.744Z,8.82
2019-02-09T04:28:54.627Z,8.79
2019-02-09T04:31:25.279Z,8.70
2019-02-09T04:33:55.840Z,8.67
2019-02-09T04:36:26.463Z,8.57
2019-02-09T04:38:57.058Z,8.51
2019-02-09T04:41:27.586Z,8.41
2019-02-09T04:43:58.472Z,8.36
2019-02-09T04:46:29.074Z,8.29
2019-02-09T04:48:59.658Z,8.26
2019-02-09T04:51:30.209Z,8.22
2019-02-09T04:54:01.026Z,8.23
2019-02-09T04:56:31.856Z,8.23
2019-02-09T04:59:02.397Z,8.19
2019-02-09T05:01:32.936Z,8.19
2019-02-09T05:04:03.792Z,8.19
2019-02-09T05:06:34.308Z,8.24
2019-02-09T05:09:07.092Z,8.28
2019-02-09T05:11:37.987Z,8.25
2019-02-09T05:14:08.527Z,8.22
2019-02-09T05:16:39.390Z,8.34
2019-02-09T05:19:10.426Z,8.36
2019-02-09T05:21:41.235Z,8.44
2019-02-09T05:24:11.859Z,8.47
2019-02-09T05:26:42.386Z,8.49
2019-02-09T05:29:12.904Z,8.47
2019-02-09T05:31:43.463Z,8.47
2019-02-09T05:34:14.277Z,8.50
2019-02-09T05:36:45.051Z,8.48
2019-02-09T05:39:15.746Z,8.54
2019-02-09T05:41:46.282Z,8.59
2019-02-09T05:44:17.083Z,8.58
2019-02-09T05:46:47.716Z,8.59
2019-02-09T05:49:18.244Z,8.60
2019-02-09T05:51:48.769Z,8.62
2019-02-09T05:54:19.426Z,8.65
2019-02-09T05:56:51.019Z,8.64
2019-02-09T05:59:21.604Z,8.58
2019-02-09T06:01:52.132Z,8.55
2019-02-09T06:04:23.142Z,8.57
2019-02-09T06:06:54.175Z,8.57
2019-02-09T06:09:24.980Z,8.51
2019-02-09T06:11:55.616Z,8.51
2019-02-09T06:14:26.204Z,8.51
2019-02-09T06:16:56.771Z,8.48
2019-02-09T06:19:27.961Z,8.51
2019-02-09T06:21:58.494Z,8.49
2019-02-09T06:24:29.072Z,8.46
2019-02-09T06:26:59.872Z,8.44
2019-02-09T06:29:30.540Z,8.52
2019-02-09T06:32:01.095Z,8.55
2019-02-09T06:34:31.621Z,8.56
2019-02-09T06:37:02.595Z,8.53
2019-02-09T06:39:33.209Z,8.51
2019-02-09T06:42:03.745Z,8.52
2019-02-09T06:44:34.447Z,8.48
2019-02-09T06:47:04.984Z,8.49
2019-02-09T06:49:35.534Z,8.54
2019-02-09T06:52:06.164Z,8.58
2019-02-09T06:54:36.724Z,8.57
2019-02-09T06:57:07.395Z,8.45
2019-02-09T06:59:38.171Z,8.28
2019-02-09T07:02:09.161Z,7.98
2019-02-09T07:04:39.732Z,7.83
2019-02-09T07:07:10.245Z,7.77
2019-02-09T07:09:40.793Z,7.85
2019-02-09T07:12:11.346Z,7.92
2019-02-09T07:14:41.938Z,7.94
2019-02-09T07:17:12.687Z,8.01
2019-02-09T07:19:43.604Z,8.02
2019-02-09T07:22:14.258Z,8.00
2019-02-09T07:24:44.987Z,7.92
2019-02-09T07:27:15.525Z,7.88
2019-02-09T07:29:46.047Z,7.96
2019-02-09T07:32:16.553Z,7.97
2019-02-09T07:34:47.121Z,7.93
2019-02-09T07:37:17.662Z,7.87
2019-02-09T07:39:48.983Z,7.86
2019-02-09T07:42:19.556Z,7.80
2019-02-09T07:44:50.882Z,7.82
2019-02-09T07:47:21.695Z,8.00
2019-02-09T07:49:52.202Z,7.94
2019-02-09T07:52:22.759Z,7.78
2019-02-09T07:54:53.586Z,7.73
2019-02-09T07:57:24.371Z,7.71
2019-02-09T07:59:55.242Z,7.71
2019-02-09T08:02:25.772Z,7.72
2019-02-09T08:04:56.588Z,7.68
2019-02-09T08:07:27.476Z,7.77
2019-02-09T08:09:58.274Z,7.88
2019-02-09T08:12:28.753Z,8.24
2019-02-09T08:14:59.286Z,8.59
2019-02-09T08:17:29.765Z,8.99
2019-02-09T08:20:00.375Z,9.26
2019-02-09T08:22:30.938Z,9.47
2019-02-09T08:25:01.470Z,9.67
2019-02-09T08:27:31.973Z,9.81
2019-02-09T08:30:02.989Z,9.96
2019-02-09T08:32:34.639Z,10.09
2019-02-09T08:35:07.017Z,10.23
2019-02-09T08:37:37.865Z,10.47
2019-02-09T08:40:09.892Z,10.20
2019-02-09T08:42:40.408Z,10.42
2019-02-09T08:45:18.402Z,10.82
2019-02-09T08:47:49.041Z,10.76
2019-02-09T08:50:31.899Z,10.56
2019-02-09T08:53:02.783Z,10.64
2019-02-09T08:55:33.728Z,10.86
2019-02-09T08:58:04.932Z,11.03
2019-02-09T09:00:39.588Z,11.21
2019-02-09T09:03:10.701Z,11.12
2019-02-09T09:05:42.916Z,10.69
2019-02-09T09:08:13.543Z,10.21
2019-02-09T09:10:44.188Z,10.56
2019-02-09T09:13:14.870Z,10.89
2019-02-09T09:15:49.544Z,11.19
2019-02-09T09:18:22.923Z,11.39
2019-02-09T09:20:57.472Z,11.38
2019-02-09T09:23:28.103Z,11.30
2019-02-09T09:25:58.684Z,11.58
2019-02-09T09:28:29.265Z,11.47
2019-02-09T09:31:00.078Z,11.38
2019-02-09T09:33:30.950Z,11.25
2019-02-09T09:36:01.683Z,10.88
2019-02-09T09:38:32.505Z,10.83
2019-02-09T09:41:03.498Z,10.59
2019-02-09T09:43:34.283Z,10.46
2019-02-09T09:46:05.213Z,10.12
2019-02-09T09:48:35.761Z,10.13
2019-02-09T09:51:06.430Z,10.35
2019-02-09T09:53:37.229Z,10.71
2019-02-09T09:56:08.417Z,10.97
2019-02-09T09:58:41.881Z,11.32
2019-02-09T10:01:12.840Z,11.37
2019-02-09T10:03:43.450Z,11.49
2019-02-09T10:06:14.353Z,11.57
2019-02-09T10:08:45.222Z,11.43
2019-02-09T10:11:15.933Z,11.41
2019-02-09T10:13:46.564Z,11.61
2019-02-09T10:16:17.097Z,11.80
2019-02-09T10:18:48.133Z,11.93
2019-02-09T10:21:18.898Z,11.90
2019-02-09T10:23:49.418Z,11.80
2019-02-09T10:26:19.937Z,11.35
2019-02-09T10:28:50.525Z,11.06
2019-02-09T10:31:21.540Z,10.99
2019-02-09T10:33:52.046Z,10.83
2019-02-09T10:36:22.602Z,10.69
2019-02-09T10:38:53.100Z,10.96
2019-02-09T10:41:23.751Z,11.19
2019-02-09T10:43:54.395Z,11.07
2019-02-09T10:46:24.966Z,11.21
2019-02-09T10:48:55.578Z,11.23
2019-02-09T10:51:26.175Z,11.03
2019-02-09T10:53:57.190Z,11.55
2019-02-09T10:56:28.637Z,11.36
2019-02-09T10:58:59.583Z,11.16
2019-02-09T11:01:30.101Z,11.00
2019-02-09T11:04:00.769Z,10.82
2019-02-09T11:06:31.465Z,10.78
2019-02-09T11:09:02.037Z,10.72
2019-02-09T11:11:32.840Z,10.76
2019-02-09T11:14:14.058Z,10.77
2019-02-09T11:16:42.151Z,10.79
2019-02-09T11:19:13.585Z,11.04
2019-02-09T11:22:03.179Z,11.59
2019-02-09T11:24:33.998Z,11.53
2019-02-09T11:27:04.742Z,11.25
2019-02-09T11:29:35.600Z,11.48
2019-02-09T11:32:06.347Z,11.55
2019-02-09T11:34:36.929Z,11.65
2019-02-09T11:37:08.084Z,12.02
2019-02-09T11:39:38.845Z,12.10
2019-02-09T11:42:09.563Z,12.48
2019-02-09T11:44:41.342Z,12.78
2019-02-09T11:47:12.096Z,12.90
2019-02-09T11:49:44.461Z,13.20
2019-02-09T11:52:15.342Z,13.66
2019-02-09T11:54:45.877Z,13.55
2019-02-09T11:57:16.518Z,13.38
2019-02-09T11:59:47.409Z,13.26
2019-02-09T12:02:18.090Z,13.21
2019-02-09T12:04:49.098Z,13.09
2019-02-09T12:07:20.160Z,13.25
2019-02-09T12:09:50.718Z,13.27
2019-02-09T12:12:21.601Z,13.17
2019-02-09T12:14:52.277Z,13.53
2019-02-09T12:17:23.075Z,13.25
2019-02-09T12:19:53.722Z,12.27
2019-02-09T12:22:24.706Z,11.76
2019-02-09T12:24:55.327Z,11.48
2019-02-09T12:27:26.358Z,11.39
2019-02-09T12:29:57.152Z,11.12
2019-02-09T12:32:27.785Z,10.89
2019-02-09T12:34:58.507Z,10.82
2019-02-09T12:37:29.190Z,10.37
2019-02-09T12:39:59.897Z,10.01
2019-02-09T12:42:30.488Z,9.73
2019-02-09T12:45:01.337Z,9.73
2019-02-09T12:47:32.334Z,9.77
2019-02-09T12:50:03.298Z,9.86
2019-02-09T12:52:35.257Z,9.91
2019-02-09T12:55:06.565Z,10.08
2019-02-09T12:57:37.191Z,10.22
2019-02-09T13:00:17.967Z,10.38
2019-02-09T13:02:48.707Z,10.48
2019-02-09T13:05:19.552Z,10.57
2019-02-09T13:07:50.562Z,10.79
2019-02-09T13:10:21.404Z,10.92
2019-02-09T13:12:51.936Z,10.95
2019-02-09T13:15:25.296Z,11.20
2019-02-09T13:17:56.138Z,11.41
2019-02-09T13:20:28.213Z,11.39
2019-02-09T13:22:59.369Z,11.42
2019-02-09T13:25:30.047Z,11.38
2019-02-09T13:28:00.864Z,11.47
2019-02-09T13:30:32.696Z,11.53
2019-02-09T13:33:03.431Z,11.57
2019-02-09T13:35:33.907Z,11.48
2019-02-09T13:38:05.177Z,11.57
2019-02-09T13:40:35.688Z,11.61
2019-02-09T13:43:06.619Z,11.70
2019-02-09T13:45:43.906Z,11.65
2019-02-09T13:48:14.417Z,11.69
2019-02-09T13:50:44.938Z,11.71
2019-02-09T13:53:15.445Z,11.54
2019-02-09T13:55:45.923Z,11.28
2019-02-09T13:58:16.449Z,11.04
2019-02-09T14:00:46.979Z,11.00
2019-02-09T14:03:17.471Z,10.96
2019-02-09T14:05:47.968Z,10.85
2019-02-09T14:08:18.598Z,10.69
2019-02-09T14:10:51.381Z,10.32
2019-02-09T14:13:27.006Z,9.82
2019-02-09T14:15:57.476Z,9.49
2019-02-09T14:18:28.424Z,9.18
2019-02-09T14:20:58.976Z,9.00
2019-02-09T14:23:29.671Z,8.79
2019-02-09T14:26:00.164Z,8.65
2019-02-09T14:28:31.422Z,8.38
2019-02-09T14:31:01.965Z,8.31
2019-02-09T14:33:32.542Z,8.23
2019-02-09T14:36:03.394Z,8.18
2019-02-09T14:38:34.480Z,8.21
2019-02-09T14:41:05.275Z,8.38
2019-02-09T14:43:35.839Z,8.49
2019-02-09T14:46:06.703Z,8.49
2019-02-09T14:48:37.301Z,8.56
2019-02-09T14:51:07.872Z,8.60
2019-02-09T14:53:38.508Z,8.68
2019-02-09T14:56:09.073Z,8.64
2019-02-09T14:58:39.918Z,8.66
2019-02-09T15:01:10.487Z,8.69
2019-02-09T15:03:41.070Z,8.72
2019-02-09T15:06:11.984Z,8.79
2019-02-09T15:08:42.885Z,8.76
2019-02-09T15:11:13.401Z,8.79
2019-02-09T15:13:44.236Z,8.87
2019-02-09T15:16:21.749Z,8.90
2019-02-09T15:18:52.419Z,8.94
2019-02-09T15:21:23.298Z,9.03
2019-02-09T15:23:53.886Z,9.04
2019-02-09T15:26:24.529Z,9.06
2019-02-09T15:28:55.107Z,9.10
2019-02-09T15:31:26.001Z,9.24
2019-02-09T15:33:56.890Z,9.29
2019-02-09T15:36:27.417Z,9.36
2019-02-09T15:38:58.054Z,9.48
2019-02-09T15:41:28.603Z,9.56
2019-02-09T15:43:59.239Z,9.59
2019-02-09T15:46:29.784Z,9.68
2019-02-09T15:49:00.528Z,9.62
2019-02-09T15:51:31.276Z,9.74
2019-02-09T15:54:01.939Z,9.81
2019-02-09T15:56:32.747Z,9.84
2019-02-09T15:59:03.684Z,9.88
2019-02-09T16:01:34.298Z,9.88
2019-02-09T16:04:05.332Z,9.84
2019-02-09T16:06:35.830Z,9.85
2019-02-09T16:09:09.616Z,9.84
2019-02-09T16:11:40.168Z,9.88
2019-02-09T16:14:10.717Z,9.86
2019-02-09T16:16:41.479Z,9.81
2019-02-09T16:19:11.983Z,9.77
2019-02-09T16:21:42.630Z,9.75
2019-02-09T16:24:13.138Z,9.76
2019-02-09T16:26:43.854Z,9.78
2019-02-09T16:29:14.800Z,9.78
2019-02-09T16:31:45.326Z,9.72
2019-02-09T16:34:15.794Z,9.73
2019-02-09T16:36:46.322Z,9.68
2019-02-09T16:39:17.049Z,9.69
2019-02-09T16:41:47.556Z,9.70
2019-02-09T16:44:18.040Z,9.69
2019-02-09T16:46:48.544Z,9.67
2019-02-09T16:49:19.106Z,9.71
2019-02-09T16:51:49.851Z,9.73
2019-02-09T16:54:20.516Z,9.74
2019-02-09T16:56:51.014Z,9.73
2019-02-09T16:59:21.482Z,9.74
2019-02-09T17:01:52.030Z,9.69
2019-02-09T17:04:22.513Z,9.63
2019-02-09T17:06:53.022Z,9.57
2019-02-09T17:09:23.531Z,9.54
2019-02-09T17:11:54.007Z,9.49
2019-02-09T17:14:24.795Z,9.50
2019-02-09T17:16:55.610Z,9.51
2019-02-09T17:19:26.387Z,9.51
2019-02-09T17:21:56.966Z,9.50
2019-02-09T17:24:27.801Z,9.53
2019-02-09T17:26:58.683Z,9.51
2019-02-09T17:29:29.294Z,9.45
2019-02-09T17:31:59.999Z,9.45
2019-02-09T17:34:30.544Z,9.50
2019-02-09T17:37:01.400Z,9.49
2019-02-09T17:39:32.310Z,9.48
2019-02-09T17:42:03.562Z,9.51
2019-02-09T17:44:34.105Z,9.49
2019-02-09T17:47:04.928Z,9.43
2019-02-09T17:49:35.457Z,9.40
2019-02-09T17:52:06.436Z,9.34
2019-02-09T17:54:37.556Z,9.40
2019-02-09T17:57:08.784Z,9.42
2019-02-09T17:59:39.644Z,9.45
2019-02-09T18:02:10.248Z,9.42
2019-02-09T18:04:48.318Z,9.36
2019-02-09T18:07:13.479Z,9.32
2019-02-09T18:09:44.677Z,9.34
2019-02-09T18:12:15.182Z,9.32
2019-02-09T18:14:45.950Z,9.28
2019-02-09T18:17:16.463Z,9.27
2019-02-09T18:19:47.012Z,9.26
2019-02-09T18:22:18.246Z,9.20
2019-02-09T18:24:49.304Z,9.19
2019-02-09T18:27:20.482Z,9.21
2019-02-09T18:29:51.054Z,9.25
2019-02-09T18:32:22.137Z,9.24
2019-02-09T18:34:56.072Z,9.27
2019-02-09T18:37:24.955Z,9.31
2019-02-09T18:39:55.767Z,9.29
2019-02-09T18:42:26.310Z,9.28
2019-02-09T18:44:56.898Z,9.27
2019-02-09T18:47:27.701Z,9.29
2019-02-09T18:49:58.501Z,9.31
2019-02-09T18:52:29.214Z,9.26
2019-02-09T18:55:00.333Z,9.23
2019-02-09T18:57:30.899Z,9.25
2019-02-09T19:00:01.784Z,9.20
2019-02-09T19:02:38.414Z,9.20
2019-02-09T19:05:05.333Z,9.19
2019-02-09T19:07:36.215Z,9.15
2019-02-09T19:10:10.769Z,9.13
2019-02-09T19:12:41.329Z,9.16
2019-02-09T19:15:12.561Z,9.11
2019-02-09T19:17:43.383Z,9.13
2019-02-09T19:20:20.877Z,9.10
2019-02-09T19:22:51.761Z,9.13
2019-02-09T19:25:22.992Z,9.09
2019-02-09T19:27:53.896Z,9.06
2019-02-09T19:30:26.108Z,9.00
2019-02-09T19:32:57.246Z,8.92
2019-02-09T19:35:27.763Z,8.90
2019-02-09T19:37:58.296Z,8.91
2019-02-09T19:40:28.912Z,8.86
2019-02-09T19:42:59.965Z,8.84
2019-02-09T19:45:32.680Z,8.81
2019-02-09T19:48:03.689Z,8.79
2019-02-09T19:50:34.479Z,8.79
2019-02-09T19:53:05.792Z,8.82
2019-02-09T19:55:37.366Z,8.76
2019-02-09T19:58:08.593Z,8.76
2019-02-09T20:00:42.661Z,8.76
2019-02-09T20:03:13.437Z,8.74
2019-02-09T20:05:44.322Z,8.71
2019-02-09T20:08:15.120Z,8.73
2019-02-09T20:10:46.435Z,8.73
2019-02-09T20:13:16.968Z,8.79
2019-02-09T20:15:47.978Z,8.77
2019-02-09T20:18:18.455Z,8.84
2019-02-09T20:20:49.014Z,8.81
2019-02-09T20:23:19.816Z,8.86
2019-02-09T20:25:50.429Z,8.85
2019-02-09T20:28:20.982Z,8.89
2019-02-09T20:30:51.520Z,8.92
2019-02-09T20:33:22.421Z,8.99
2019-02-09T20:35:52.917Z,8.98
2019-02-09T20:38:23.479Z,9.03
2019-02-09T20:41:02.185Z,9.04
2019-02-09T20:43:32.658Z,9.06
2019-02-09T20:46:03.491Z,9.13
2019-02-09T20:48:34.555Z,9.17
2019-02-09T20:51:05.563Z,9.17
2019-02-09T20:53:36.304Z,9.17
2019-02-09T20:56:07.368Z,9.16
2019-02-09T20:58:38.084Z,9.16
2019-02-09T21:01:08.831Z,9.16
2019-02-09T21:03:39.854Z,9.18
2019-02-09T21:06:11.383Z,9.15
2019-02-09T21:08:42.272Z,9.15
2019-02-09T21:11:12.963Z,9.20
2019-02-09T21:13:43.556Z,9.17
2019-02-09T21:16:14.346Z,9.19
2019-02-09T21:18:45.470Z,9.19
2019-02-09T21:21:16.720Z,9.22
2019-02-09T21:23:47.599Z,9.26
2019-02-09T21:26:18.376Z,9.25
2019-02-09T21:28:49.309Z,9.27
2019-02-09T21:31:19.934Z,9.29
2019-02-09T21:33:50.630Z,9.33
2019-02-09T21:36:22.192Z,9.29
2019-02-09T21:38:52.938Z,9.34
2019-02-09T21:41:23.597Z,9.33
2019-02-09T21:43:54.570Z,9.33
2019-02-09T21:46:25.407Z,9.31
2019-02-09T21:48:56.599Z,9.32
2019-02-09T21:51:27.496Z,9.29
2019-02-09T21:53:58.140Z,9.35
2019-02-09T21:56:29.483Z,9.28
2019-02-09T21:59:00.047Z,9.31
2019-02-09T22:01:31.751Z,9.26
2019-02-09T22:04:02.428Z,9.33
2019-02-09T22:06:32.984Z,9.28
2019-02-09T22:09:03.601Z,9.32
2019-02-09T22:11:34.165Z,9.28
2019-02-09T22:14:05.075Z,9.34
2019-02-09T22:16:36.899Z,9.32
2019-02-09T22:19:07.531Z,9.33
2019-02-09T22:21:38.167Z,9.28
2019-02-09T22:24:08.707Z,9.25
2019-02-09T22:26:39.409Z,9.37
2019-02-09T22:29:10.274Z,9.28
2019-02-09T22:31:41.047Z,9.35
2019-02-09T22:34:11.916Z,9.34
2019-02-09T22:36:42.518Z,9.36
2019-02-09T22:39:12.980Z,9.42
2019-02-09T22:41:48.949Z,9.40
2019-02-09T22:44:15.733Z,9.43
2019-02-09T22:46:46.296Z,9.41
2019-02-09T22:49:16.751Z,9.43
2019-02-09T22:51:47.577Z,9.41
2019-02-09T22:54:18.038Z,9.40
2019-02-09T22:56:48.631Z,9.43
2019-02-09T22:59:19.163Z,9.41
2019-02-09T23:01:53.435Z,9.47
2019-02-09T23:05:11.095Z,9.50
2019-02-09T23:07:42.612Z,9.48
2019-02-09T23:10:15.543Z,9.58
2019-02-09T23:12:48.654Z,9.55
2019-02-09T23:15:18.581Z,9.54
2019-02-09T23:17:49.206Z,9.62
2019-02-09T23:20:19.674Z,9.55
2019-02-09T23:22:50.156Z,9.56
2019-02-09T23:25:20.696Z,9.59
2019-02-09T23:27:51.356Z,9.54
2019-02-09T23:30:23.601Z,9.56
2019-02-09T23:32:54.310Z,9.61
2019-02-09T23:35:25.054Z,9.57
2019-02-09T23:37:55.819Z,9.55
2019-02-09T23:40:26.431Z,9.59
2019-02-09T23:42:56.986Z,9.56
2019-02-09T23:45:27.489Z,9.57
2019-02-09T23:47:58.034Z,9.56
2019-02-09T23:50:28.830Z,9.57
2019-02-09T23:52:59.569Z,9.61
2019-02-09T23:55:30.515Z,9.60
2019-02-09T23:58:01.539Z,9.66
